Naas, Ireland
Current Conditions -  °F | °C
As of 8:00 AM on Tuesday 27 Jan 2015 (Local Time) from EIME Reporting Station
Broken Clouds Broken Clouds  
Wind Chill: 33°   Ceiling: 2700
Heat Index: 41°   Visibility: 6mi
Dew Point: 39°   Wind: 14mph
Humidity: 93%   Direction: 220°SW
Pressure: 30.36"   Gusts: NA
Location:  53.22°N, 6.68°W
Report Text: EIME 270800Z 22012KT 9999 SCT016 BKN027 BKN250 05/04 Q1028
Loading
Personal Weather Stations






























Interactive Weather Map New forecast layout! Learn more

10-Day Weather Forecast

Advertisements
Track Severe Weather on mobile